sensor_id;sensor_type;location;lat;lon;timestamp;pressure;altitude;pressure_sealevel;temperature;humidity
55410;BME280;41279;43.546;16.426;2022-12-07T00:01:39;53633.75;;;-146.77;100.00
55410;BME280;41279;43.546;16.426;2022-12-07T00:04:09;53609.72;;;-146.77;100.00
55410;BME280;41279;43.546;16.426;2022-12-07T00:06:37;53611.72;;;-146.77;100.00
55410;BME280;41279;43.546;16.426;2022-12-07T00:09:04;53553.63;;;-146.77;100.00
55410;BME280;41279;43.546;16.426;2022-12-07T00:11:30;53525.59;;;-146.77;100.00
55410;BME280;41279;43.546;16.426;2022-12-07T00:14:00;53701.84;;;-146.77;100.00
55410;BME280;41279;43.546;16.426;2022-12-07T00:16:28;53872.06;;;-146.77;100.00
55410;BME280;41279;43.546;16.426;2022-12-07T00:18:54;53799.97;;;-146.77;100.00
55410;BME280;41279;43.546;16.426;2022-12-07T00:21:26;53777.94;;;-146.77;100.00
55410;BME280;41279;43.546;16.426;2022-12-07T00:23:53;53828.00;;;-146.77;100.00
55410;BME280;41279;43.546;16.426;2022-12-07T00:26:21;53795.97;;;-146.77;100.00
55410;BME280;41279;43.546;16.426;2022-12-07T00:28:52;53731.88;;;-146.77;100.00
55410;BME280;41279;43.546;16.426;2022-12-07T00:31:20;53759.91;;;-146.77;100.00
55410;BME280;41279;43.546;16.426;2022-12-07T00:33:46;53739.88;;;-146.77;100.00
55410;BME280;41279;43.546;16.426;2022-12-07T00:36:14;53759.91;;;-146.77;100.00
55410;BME280;41279;43.546;16.426;2022-12-07T00:38:40;53633.75;;;-146.77;100.00
55410;BME280;41279;43.546;16.426;2022-12-07T00:41:13;53721.88;;;-146.77;100.00
55410;BME280;41279;43.546;16.426;2022-12-07T00:43:40;53569.66;;;-146.77;100.00
55410;BME280;41279;43.546;16.426;2022-12-07T00:46:06;53653.78;;;-146.77;100.00
55410;BME280;41279;43.546;16.426;2022-12-07T00:48:32;53649.78;;;-146.77;100.00
55410;BME280;41279;43.546;16.426;2022-12-07T00:50:58;53647.75;;;-146.77;100.00
55410;BME280;41279;43.546;16.426;2022-12-07T00:53:25;53791.97;;;-146.77;100.00
55410;BME280;41279;43.546;16.426;2022-12-07T00:55:50;55033.84;;;-146.77;100.00
55410;BME280;41279;43.546;16.426;2022-12-07T00:58:15;56085.75;;;-146.77;100.00
55410;BME280;41279;43.546;16.426;2022-12-07T01:00:42;55043.88;;;-146.77;100.00
55410;BME280;41279;43.546;16.426;2022-12-07T01:03:09;54388.81;;;-146.77;100.00
55410;BME280;41279;43.546;16.426;2022-12-07T01:05:35;54066.34;;;-146.77;100.00
55410;BME280;41279;43.546;16.426;2022-12-07T01:08:01;54088.38;;;-146.77;100.00
55410;BME280;41279;43.546;16.426;2022-12-07T01:10:27;53862.06;;;-146.77;100.00
55410;BME280;41279;43.546;16.426;2022-12-07T01:12:52;53972.22;;;-146.77;100.00
55410;BME280;41279;43.546;16.426;2022-12-07T01:15:18;53840.03;;;-146.77;100.00
55410;BME280;41279;43.546;16.426;2022-12-07T01:17:44;53731.88;;;-146.77;100.00
55410;BME280;41279;43.546;16.426;2022-12-07T01:20:10;53749.91;;;-146.77;100.00
55410;BME280;41279;43.546;16.426;2022-12-07T01:22:37;53599.69;;;-146.77;100.00
55410;BME280;41279;43.546;16.426;2022-12-07T01:25:04;53667.78;;;-146.77;100.00
55410;BME280;41279;43.546;16.426;2022-12-07T01:27:29;53647.75;;;-146.77;100.00
55410;BME280;41279;43.546;16.426;2022-12-07T01:29:54;53587.69;;;-146.77;100.00
55410;BME280;41279;43.546;16.426;2022-12-07T01:32:20;53585.69;;;-146.77;100.00
55410;BME280;41279;43.546;16.426;2022-12-07T01:34:47;53613.72;;;-146.77;100.00
55410;BME280;41279;43.546;16.426;2022-12-07T01:37:13;53862.06;;;-146.77;100.00
55410;BME280;41279;43.546;16.426;2022-12-07T01:39:38;53896.09;;;-146.77;100.00
55410;BME280;41279;43.546;16.426;2022-12-07T01:42:03;53902.09;;;-146.77;100.00
55410;BME280;41279;43.546;16.426;2022-12-07T01:44:29;53709.84;;;-146.77;100.00
55410;BME280;41279;43.546;16.426;2022-12-07T01:47:02;53886.09;;;-146.77;100.00
55410;BME280;41279;43.546;16.426;2022-12-07T01:49:37;53733.88;;;-146.77;100.00
55410;BME280;41279;43.546;16.426;2022-12-07T01:52:29;53872.06;;;-146.77;100.00
55410;BME280;41279;43.546;16.426;2022-12-07T01:55:00;53908.13;;;-146.77;100.00
55410;BME280;41279;43.546;16.426;2022-12-07T01:57:26;53745.91;;;-146.77;100.00
55410;BME280;41279;43.546;16.426;2022-12-07T01:59:53;53789.97;;;-146.77;100.00
55410;BME280;41279;43.546;16.426;2022-12-07T02:02:31;53944.16;;;-146.77;100.00
55410;BME280;41279;43.546;16.426;2022-12-07T02:04:59;53974.22;;;-146.77;100.00
55410;BME280;41279;43.546;16.426;2022-12-07T02:07:25;54246.59;;;-146.77;100.00
55410;BME280;41279;43.546;16.426;2022-12-07T02:09:52;53944.16;;;-146.77;100.00
55410;BME280;41279;43.546;16.426;2022-12-07T02:12:17;54004.25;;;-146.77;100.00
55410;BME280;41279;43.546;16.426;2022-12-07T02:14:43;53968.19;;;-146.77;100.00
55410;BME280;41279;43.546;16.426;2022-12-07T02:17:25;54120.41;;;-146.77;100.00
55410;BME280;41279;43.546;16.426;2022-12-07T02:25:39;54032.28;;;-146.77;100.00
55410;BME280;41279;43.546;16.426;2022-12-07T02:28:35;53918.13;;;-146.77;100.00
55410;BME280;41279;43.546;16.426;2022-12-07T02:31:13;53862.06;;;-146.77;100.00
55410;BME280;41279;43.546;16.426;2022-12-07T02:33:45;53858.06;;;-146.77;100.00
55410;BME280;41279;43.546;16.426;2022-12-07T02:36:21;53860.06;;;-146.77;100.00
55410;BME280;41279;43.546;16.426;2022-12-07T02:39:15;53904.13;;;-146.77;100.00
55410;BME280;41279;43.546;16.426;2022-12-07T02:42:02;53956.19;;;-146.77;100.00
55410;BME280;41279;43.546;16.426;2022-12-07T02:44:29;53812.00;;;-146.77;100.00
55410;BME280;41279;43.546;16.426;2022-12-07T02:47:01;53759.91;;;-146.77;100.00
55410;BME280;41279;43.546;16.426;2022-12-07T02:49:28;53902.09;;;-146.77;100.00
55410;BME280;41279;43.546;16.426;2022-12-07T02:51:54;53705.84;;;-146.77;100.00
55410;BME280;41279;43.546;16.426;2022-12-07T02:54:20;53655.78;;;-146.77;100.00
55410;BME280;41279;43.546;16.426;2022-12-07T03:12:47;54270.63;;;-146.77;100.00
55410;BME280;41279;43.546;16.426;2022-12-07T03:15:20;54440.91;;;-146.77;100.00
55410;BME280;41279;43.546;16.426;2022-12-07T03:17:49;55093.94;;;-146.77;100.00
55410;BME280;41279;43.546;16.426;2022-12-07T03:20:17;55821.25;;;-146.77;100.00
55410;BME280;41279;43.546;16.426;2022-12-07T03:22:44;55494.66;;;-146.77;100.00
55410;BME280;41279;43.546;16.426;2022-12-07T03:25:14;55170.06;;;-146.77;100.00
55410;BME280;41279;43.546;16.426;2022-12-07T03:30:15;54501.00;;;-146.77;100.00
55410;BME280;41279;43.546;16.426;2022-12-07T03:32:47;54224.56;;;-146.77;100.00
55410;BME280;41279;43.546;16.426;2022-12-07T03:37:54;54152.47;;;-146.77;100.00
55410;BME280;41279;43.546;16.426;2022-12-07T03:41:01;53980.22;;;-146.77;100.00
55410;BME280;41279;43.546;16.426;2022-12-07T03:43:28;54052.31;;;-146.77;100.00
55410;BME280;41279;43.546;16.426;2022-12-07T03:46:20;54046.31;;;-146.77;100.00
55410;BME280;41279;43.546;16.426;2022-12-07T03:48:57;53968.19;;;-146.77;100.00
55410;BME280;41279;43.546;16.426;2022-12-07T03:51:31;53976.22;;;-146.77;100.00
55410;BME280;41279;43.546;16.426;2022-12-07T03:54:10;53996.25;;;-146.77;100.00
55410;BME280;41279;43.546;16.426;2022-12-07T03:56:36;53974.22;;;-146.77;100.00
55410;BME280;41279;43.546;16.426;2022-12-07T04:05:46;56829.25;;;-146.77;100.00
55410;BME280;41279;43.546;16.426;2022-12-07T04:08:11;61289.25;;;-146.77;100.00
55410;BME280;41279;43.546;16.426;2022-12-07T04:10:36;63085.50;;;-146.77;100.00
55410;BME280;41279;43.546;16.426;2022-12-07T04:13:02;61102.66;;;-146.77;100.00
55410;BME280;41279;43.546;16.426;2022-12-07T04:15:27;58727.75;;;-146.77;100.00
55410;BME280;41279;43.546;16.426;2022-12-07T04:17:53;57631.06;;;-146.77;100.00
55410;BME280;41279;43.546;16.426;2022-12-07T04:20:19;55837.28;;;-146.77;100.00
55410;BME280;41279;43.546;16.426;2022-12-07T04:22:45;55113.97;;;-146.77;100.00
55410;BME280;41279;43.546;16.426;2022-12-07T04:25:11;54581.13;;;-146.77;100.00
55410;BME280;41279;43.546;16.426;2022-12-07T04:27:36;54569.09;;;-146.77;100.00
55410;BME280;41279;43.546;16.426;2022-12-07T04:30:02;54719.34;;;-146.77;100.00
55410;BME280;41279;43.546;16.426;2022-12-07T04:32:28;54703.31;;;-146.77;100.00
55410;BME280;41279;43.546;16.426;2022-12-07T04:34:53;54436.88;;;-146.77;100.00
55410;BME280;41279;43.546;16.426;2022-12-07T04:37:18;55370.44;;;-146.77;100.00
55410;BME280;41279;43.546;16.426;2022-12-07T04:39:44;54967.75;;;-146.77;100.00
55410;BME280;41279;43.546;16.426;2022-12-07T04:42:12;54673.25;;;-146.77;100.00
55410;BME280;41279;43.546;16.426;2022-12-07T04:44:40;54517.00;;;-146.77;100.00
55410;BME280;41279;43.546;16.426;2022-12-07T04:47:05;54412.84;;;-146.77;100.00
55410;BME280;41279;43.546;16.426;2022-12-07T04:49:31;54420.88;;;-146.77;100.00
55410;BME280;41279;43.546;16.426;2022-12-07T04:51:56;54232.59;;;-146.77;100.00
55410;BME280;41279;43.546;16.426;2022-12-07T04:54:22;54446.91;;;-146.77;100.00
55410;BME280;41279;43.546;16.426;2022-12-07T04:56:47;54701.31;;;-146.77;100.00
55410;BME280;41279;43.546;16.426;2022-12-07T04:59:14;54557.06;;;-146.77;100.00
55410;BME280;41279;43.546;16.426;2022-12-07T05:01:39;54667.25;;;-146.77;100.00
55410;BME280;41279;43.546;16.426;2022-12-07T05:04:05;54521.03;;;-146.77;100.00
55410;BME280;41279;43.546;16.426;2022-12-07T05:06:31;55003.78;;;-146.77;100.00
55410;BME280;41279;43.546;16.426;2022-12-07T05:08:56;54613.16;;;-146.77;100.00
55410;BME280;41279;43.546;16.426;2022-12-07T05:11:22;54494.97;;;-146.77;100.00
55410;BME280;41279;43.546;16.426;2022-12-07T05:16:31;54442.91;;;-146.77;100.00
55410;BME280;41279;43.546;16.426;2022-12-07T05:18:56;54494.97;;;-146.77;100.00
55410;BME280;41279;43.546;16.426;2022-12-07T05:21:22;54438.91;;;-146.77;100.00
55410;BME280;41279;43.546;16.426;2022-12-07T05:23:47;55116.00;;;-146.77;100.00
55410;BME280;41279;43.546;16.426;2022-12-07T05:26:13;62282.63;;;-146.77;100.00
55410;BME280;41279;43.546;16.426;2022-12-07T05:28:38;62176.25;;;-146.77;100.00
55410;BME280;41279;43.546;16.426;2022-12-07T05:31:04;65137.63;;;-146.77;100.00
55410;BME280;41279;43.546;16.426;2022-12-07T05:33:29;69536.56;;;-146.77;100.00
55410;BME280;41279;43.546;16.426;2022-12-07T05:35:54;66533.75;;;-146.77;100.00
55410;BME280;41279;43.546;16.426;2022-12-07T05:38:20;70252.44;;;-146.77;100.00
55410;BME280;41279;43.546;16.426;2022-12-07T05:40:45;64741.97;;;-146.77;100.00
55410;BME280;41279;43.546;16.426;2022-12-07T05:43:10;61985.59;;;-146.77;100.00
55410;BME280;41279;43.546;16.426;2022-12-07T05:45:36;60185.84;;;-146.77;100.00
55410;BME280;41279;43.546;16.426;2022-12-07T05:48:01;56739.06;;;-146.77;100.00
55410;BME280;41279;43.546;16.426;2022-12-07T05:50:26;56127.84;;;-146.77;100.00
55410;BME280;41279;43.546;16.426;2022-12-07T05:52:53;59826.78;;;-146.77;100.00
55410;BME280;41279;43.546;16.426;2022-12-07T05:55:18;71121.31;;;-146.77;100.00
55410;BME280;41279;43.546;16.426;2022-12-07T05:57:44;62674.00;;;-146.77;100.00
55410;BME280;41279;43.546;16.426;2022-12-07T06:00:29;59223.09;;;-146.77;100.00
55410;BME280;41279;43.546;16.426;2022-12-07T06:02:54;58090.16;;;-146.77;100.00
55410;BME280;41279;43.546;16.426;2022-12-07T06:05:20;60484.72;;;-146.77;100.00
55410;BME280;41279;43.546;16.426;2022-12-07T06:07:45;59674.34;;;-146.77;100.00
55410;BME280;41279;43.546;16.426;2022-12-07T06:10:10;67106.41;;;-146.77;100.00
55410;BME280;41279;43.546;16.426;2022-12-07T06:12:36;71883.72;;;-146.77;100.00
55410;BME280;41279;43.546;16.426;2022-12-07T06:15:03;70429.41;;;-146.77;100.00
55410;BME280;41279;43.546;16.426;2022-12-07T06:17:29;64065.25;;;-146.77;100.00
55410;BME280;41279;43.546;16.426;2022-12-07T06:19:54;68362.50;;;-146.77;100.00
55410;BME280;41279;43.546;16.426;2022-12-07T06:22:19;62553.56;;;-146.77;100.00
55410;BME280;41279;43.546;16.426;2022-12-07T06:24:45;61991.59;;;-146.77;100.00
55410;BME280;41279;43.546;16.426;2022-12-07T06:27:10;55604.84;;;-146.77;100.00
55410;BME280;41279;43.546;16.426;2022-12-07T06:29:36;54953.72;;;-146.77;100.00
55410;BME280;41279;43.546;16.426;2022-12-07T06:32:02;54877.59;;;-146.77;100.00
55410;BME280;41279;43.546;16.426;2022-12-07T06:34:27;54943.69;;;-146.77;100.00
55410;BME280;41279;43.546;16.426;2022-12-07T06:36:53;54821.50;;;-146.77;100.00
55410;BME280;41279;43.546;16.426;2022-12-07T06:39:22;54759.41;;;-146.77;100.00
55410;BME280;41279;43.546;16.426;2022-12-07T06:41:49;54727.34;;;-146.77;100.00
55410;BME280;41279;43.546;16.426;2022-12-07T06:44:16;54745.38;;;-146.77;100.00
55410;BME280;41279;43.546;16.426;2022-12-07T06:46:42;54655.22;;;-146.77;100.00
55410;BME280;41279;43.546;16.426;2022-12-07T06:49:07;54929.69;;;-146.77;100.00
55410;BME280;41279;43.546;16.426;2022-12-07T06:51:33;62039.78;;;-146.77;100.00
55410;BME280;41279;43.546;16.426;2022-12-07T06:54:04;77841.25;;;-146.77;100.00
55410;BME280;41279;43.546;16.426;2022-12-07T06:56:29;78357.09;;;-146.77;100.00
55410;BME280;41279;43.546;16.426;2022-12-07T06:58:55;71453.22;;;-146.77;100.00
55410;BME280;41279;43.546;16.426;2022-12-07T07:01:20;66600.06;;;-146.77;100.00
55410;BME280;41279;43.546;16.426;2022-12-07T07:03:46;57536.84;;;-146.77;100.00
55410;BME280;41279;43.546;16.426;2022-12-07T07:06:13;58264.59;;;-146.77;100.00
55410;BME280;41279;43.546;16.426;2022-12-07T07:08:39;55953.50;;;-146.77;100.00
55410;BME280;41279;43.546;16.426;2022-12-07T07:11:05;55985.56;;;-146.77;100.00
55410;BME280;41279;43.546;16.426;2022-12-07T07:13:31;55436.53;;;-146.77;100.00
55410;BME280;41279;43.546;16.426;2022-12-07T07:15:56;55354.41;;;-146.77;100.00
55410;BME280;41279;43.546;16.426;2022-12-07T07:18:22;55037.84;;;-146.77;100.00
55410;BME280;41279;43.546;16.426;2022-12-07T07:20:48;55152.03;;;-146.77;100.00
55410;BME280;41279;43.546;16.426;2022-12-07T07:23:13;55492.66;;;-146.77;100.00
55410;BME280;41279;43.546;16.426;2022-12-07T07:25:39;56230.03;;;-146.77;100.00
55410;BME280;41279;43.546;16.426;2022-12-07T07:28:04;55835.28;;;-146.77;100.00
55410;BME280;41279;43.546;16.426;2022-12-07T07:30:30;55334.38;;;-146.77;100.00
55410;BME280;41279;43.546;16.426;2022-12-07T07:33:02;56534.66;;;-146.77;100.00
55410;BME280;41279;43.546;16.426;2022-12-07T07:35:29;67671.09;;;-146.77;100.00
55410;BME280;41279;43.546;16.426;2022-12-07T07:37:56;64754.03;;;-146.77;100.00
55410;BME280;41279;43.546;16.426;2022-12-07T07:40:21;61831.06;;;-146.77;100.00
55410;BME280;41279;43.546;16.426;2022-12-07T07:42:48;61339.44;;;-146.77;100.00
55410;BME280;41279;43.546;16.426;2022-12-07T07:45:13;58958.38;;;-146.77;100.00
55410;BME280;41279;43.546;16.426;2022-12-07T07:47:39;59118.81;;;-146.77;100.00
55410;BME280;41279;43.546;16.426;2022-12-07T07:50:05;57162.00;;;-146.77;100.00
55410;BME280;41279;43.546;16.426;2022-12-07T07:52:30;56596.78;;;-146.77;100.00
55410;BME280;41279;43.546;16.426;2022-12-07T07:54:56;55727.06;;;-146.77;100.00
55410;BME280;41279;43.546;16.426;2022-12-07T07:57:21;55416.50;;;-146.77;100.00
55410;BME280;41279;43.546;16.426;2022-12-07T07:59:47;54947.72;;;-146.77;100.00
55410;BME280;41279;43.546;16.426;2022-12-07T08:02:14;55186.09;;;-146.77;100.00
55410;BME280;41279;43.546;16.426;2022-12-07T08:04:40;55244.22;;;-146.77;100.00
55410;BME280;41279;43.546;16.426;2022-12-07T08:07:05;54573.09;;;-146.77;100.00
55410;BME280;41279;43.546;16.426;2022-12-07T08:09:31;54809.47;;;-146.77;100.00
55410;BME280;41279;43.546;16.426;2022-12-07T08:11:57;53970.22;;;-146.77;100.00
55410;BME280;41279;43.546;16.426;2022-12-07T08:14:22;54434.88;;;-146.77;100.00
55410;BME280;41279;43.546;16.426;2022-12-07T08:16:48;54428.88;;;-146.77;100.00
55410;BME280;41279;43.546;16.426;2022-12-07T08:19:20;54240.59;;;-146.77;100.00
55410;BME280;41279;43.546;16.426;2022-12-07T08:21:45;54266.63;;;-146.77;100.00
55410;BME280;41279;43.546;16.426;2022-12-07T08:24:11;54466.94;;;-146.77;100.00
55410;BME280;41279;43.546;16.426;2022-12-07T08:26:36;54444.91;;;-146.77;100.00
55410;BME280;41279;43.546;16.426;2022-12-07T08:29:02;54342.75;;;-146.77;100.00
55410;BME280;41279;43.546;16.426;2022-12-07T08:31:35;54537.03;;;-146.77;100.00
55410;BME280;41279;43.546;16.426;2022-12-07T08:34:00;55091.94;;;-146.77;100.00
55410;BME280;41279;43.546;16.426;2022-12-07T08:36:25;54811.47;;;-146.77;100.00
55410;BME280;41279;43.546;16.426;2022-12-07T08:38:51;54258.63;;;-146.77;100.00
55410;BME280;41279;43.546;16.426;2022-12-07T08:41:16;54408.84;;;-146.77;100.00
55410;BME280;41279;43.546;16.426;2022-12-07T08:43:42;54258.63;;;-146.77;100.00
55410;BME280;41279;43.546;16.426;2022-12-07T08:48:52;54515.00;;;-146.77;100.00
55410;BME280;41279;43.546;16.426;2022-12-07T08:51:20;54765.41;;;-146.77;100.00
55410;BME280;41279;43.546;16.426;2022-12-07T08:53:47;54953.72;;;-146.77;100.00
55410;BME280;41279;43.546;16.426;2022-12-07T08:56:13;54378.81;;;-146.77;100.00
55410;BME280;41279;43.546;16.426;2022-12-07T08:58:38;54577.09;;;-146.77;100.00
55410;BME280;41279;43.546;16.426;2022-12-07T09:01:04;55109.97;;;-146.77;100.00
55410;BME280;41279;43.546;16.426;2022-12-07T09:03:30;56087.75;;;-146.77;100.00
55410;BME280;41279;43.546;16.426;2022-12-07T09:05:57;57228.13;;;-146.77;100.00
55410;BME280;41279;43.546;16.426;2022-12-07T09:08:26;55879.34;;;-146.77;100.00
55410;BME280;41279;43.546;16.426;2022-12-07T09:10:54;54837.53;;;-146.77;100.00
55410;BME280;41279;43.546;16.426;2022-12-07T09:13:19;55554.75;;;-146.77;100.00
55410;BME280;41279;43.546;16.426;2022-12-07T09:15:45;54921.66;;;-146.77;100.00
55410;BME280;41279;43.546;16.426;2022-12-07T09:18:10;56256.09;;;-146.77;100.00
55410;BME280;41279;43.546;16.426;2022-12-07T09:20:35;54965.72;;;-146.77;100.00
55410;BME280;41279;43.546;16.426;2022-12-07T09:23:01;55590.81;;;-146.77;100.00
55410;BME280;41279;43.546;16.426;2022-12-07T09:25:26;56274.13;;;-146.77;100.00
55410;BME280;41279;43.546;16.426;2022-12-07T09:27:55;55753.13;;;-146.77;100.00
55410;BME280;41279;43.546;16.426;2022-12-07T09:30:21;56003.59;;;-146.77;100.00
55410;BME280;41279;43.546;16.426;2022-12-07T09:32:47;55703.03;;;-146.77;100.00
55410;BME280;41279;43.546;16.426;2022-12-07T09:35:12;55715.06;;;-146.77;100.00
55410;BME280;41279;43.546;16.426;2022-12-07T09:37:37;55831.25;;;-146.77;100.00
55410;BME280;41279;43.546;16.426;2022-12-07T09:40:04;56853.31;;;-146.77;100.00
55410;BME280;41279;43.546;16.426;2022-12-07T09:42:35;57270.22;;;-146.77;100.00
55410;BME280;41279;43.546;16.426;2022-12-07T09:45:04;56197.97;;;-146.77;100.00
55410;BME280;41279;43.546;16.426;2022-12-07T09:47:30;58799.94;;;-146.77;100.00
55410;BME280;41279;43.546;16.426;2022-12-07T09:50:04;59315.34;;;-146.77;100.00
55410;BME280;41279;43.546;16.426;2022-12-07T09:52:30;58230.50;;;-146.77;100.00
55410;BME280;41279;43.546;16.426;2022-12-07T09:54:55;56945.50;;;-146.77;100.00
55410;BME280;41279;43.546;16.426;2022-12-07T09:57:28;55687.00;;;-146.77;100.00
55410;BME280;41279;43.546;16.426;2022-12-07T09:59:56;56532.66;;;-146.77;100.00
55410;BME280;41279;43.546;16.426;2022-12-07T10:02:35;55494.66;;;-146.77;100.00
55410;BME280;41279;43.546;16.426;2022-12-07T10:05:04;55342.38;;;-146.77;100.00
55410;BME280;41279;43.546;16.426;2022-12-07T10:07:29;55222.16;;;-146.77;100.00
55410;BME280;41279;43.546;16.426;2022-12-07T10:09:55;55045.88;;;-146.77;100.00
55410;BME280;41279;43.546;16.426;2022-12-07T10:12:20;54613.16;;;-146.77;100.00
55410;BME280;41279;43.546;16.426;2022-12-07T10:14:59;55061.91;;;-146.77;100.00
55410;BME280;41279;43.546;16.426;2022-12-07T10:19:51;54871.56;;;-146.77;100.00
55410;BME280;41279;43.546;16.426;2022-12-07T10:22:16;54739.38;;;-146.77;100.00
55410;BME280;41279;43.546;16.426;2022-12-07T10:24:44;54821.50;;;-146.77;100.00
55410;BME280;41279;43.546;16.426;2022-12-07T10:29:48;56274.13;;;-146.77;100.00
55410;BME280;41279;43.546;16.426;2022-12-07T10:34:39;56969.56;;;-146.77;100.00
55410;BME280;41279;43.546;16.426;2022-12-07T10:39:45;62457.22;;;-146.77;100.00
55410;BME280;41279;43.546;16.426;2022-12-07T10:42:21;59856.88;;;-146.77;100.00
55410;BME280;41279;43.546;16.426;2022-12-07T10:44:49;56747.09;;;-146.77;100.00
55410;BME280;41279;43.546;16.426;2022-12-07T10:53:01;61118.72;;;-146.77;100.00
55410;BME280;41279;43.546;16.426;2022-12-07T10:55:56;57125.91;;;-146.77;100.00
55410;BME280;41279;43.546;16.426;2022-12-07T11:01:03;54521.03;;;-146.77;100.00
55410;BME280;41279;43.546;16.426;2022-12-07T11:09:04;53838.03;;;-146.77;100.00
55410;BME280;41279;43.546;16.426;2022-12-07T11:11:45;54136.44;;;-146.77;100.00
55410;BME280;41279;43.546;16.426;2022-12-07T11:14:25;53940.16;;;-146.77;100.00
55410;BME280;41279;43.546;16.426;2022-12-07T11:16:59;53932.16;;;-146.77;100.00
55410;BME280;41279;43.546;16.426;2022-12-07T11:20:01;53541.63;;;-146.77;100.00
55410;BME280;41279;43.546;16.426;2022-12-07T11:25:32;53655.78;;;-146.77;100.00
55410;BME280;41279;43.546;16.426;2022-12-07T11:33:21;53775.94;;;-146.77;97.73
55410;BME280;41279;43.546;16.426;2022-12-07T11:38:54;53719.84;;;-146.77;97.43
55410;BME280;41279;43.546;16.426;2022-12-07T11:41:25;53828.00;;;-146.77;98.72
55410;BME280;41279;43.546;16.426;2022-12-07T11:43:58;53723.88;;;-146.77;95.84
55410;BME280;41279;43.546;16.426;2022-12-07T11:46:35;53743.91;;;-146.77;97.69
55410;BME280;41279;43.546;16.426;2022-12-07T11:49:12;53904.13;;;-146.77;99.14
55410;BME280;41279;43.546;16.426;2022-12-07T11:51:40;53741.88;;;-146.77;98.43
55410;BME280;41279;43.546;16.426;2022-12-07T11:54:31;53613.72;;;-146.77;100.00
55410;BME280;41279;43.546;16.426;2022-12-07T11:57:02;53799.97;;;-146.77;100.00
55410;BME280;41279;43.546;16.426;2022-12-07T11:59:39;53807.97;;;-146.77;100.00
55410;BME280;41279;43.546;16.426;2022-12-07T12:02:15;54000.25;;;-146.77;100.00
55410;BME280;41279;43.546;16.426;2022-12-07T12:04:51;54334.75;;;-146.77;100.00
55410;BME280;41279;43.546;16.426;2022-12-07T12:07:25;54256.63;;;-146.77;100.00
55410;BME280;41279;43.546;16.426;2022-12-07T12:15:41;53725.88;;;-146.77;100.00
55410;BME280;41279;43.546;16.426;2022-12-07T12:20:50;53647.75;;;-146.77;100.00
55410;BME280;41279;43.546;16.426;2022-12-07T12:25:45;53747.91;;;-146.77;100.00
55410;BME280;41279;43.546;16.426;2022-12-07T12:28:39;53699.84;;;-146.77;100.00
55410;BME280;41279;43.546;16.426;2022-12-07T12:31:15;53545.63;;;-146.77;100.00
55410;BME280;41279;43.546;16.426;2022-12-07T12:47:00;53523.59;;;-146.77;89.62
55410;BME280;41279;43.546;16.426;2022-12-07T12:49:35;53731.88;;;-146.77;96.41
55410;BME280;41279;43.546;16.426;2022-12-07T12:54:39;53912.13;;;-146.77;100.00
55410;BME280;41279;43.546;16.426;2022-12-07T12:57:30;53892.09;;;-146.77;95.80
55410;BME280;41279;43.546;16.426;2022-12-07T12:59:56;53777.94;;;-146.77;100.00
55410;BME280;41279;43.546;16.426;2022-12-07T13:02:55;53966.19;;;-146.77;100.00
55410;BME280;41279;43.546;16.426;2022-12-07T13:05:24;53759.91;;;-146.77;100.00
55410;BME280;41279;43.546;16.426;2022-12-07T13:08:10;53779.94;;;-146.77;100.00
55410;BME280;41279;43.546;16.426;2022-12-07T13:10:43;53860.06;;;-146.77;100.00
55410;BME280;41279;43.546;16.426;2022-12-07T13:20:57;53799.97;;;-146.77;98.46
55410;BME280;41279;43.546;16.426;2022-12-07T13:28:48;53633.75;;;-146.77;94.88
55410;BME280;41279;43.546;16.426;2022-12-07T13:33:52;53679.81;;;-146.77;100.00
55410;BME280;41279;43.546;16.426;2022-12-07T13:36:26;54040.31;;;-146.77;100.00
55410;BME280;41279;43.546;16.426;2022-12-07T13:38:58;54743.38;;;-146.77;100.00
55410;BME280;41279;43.546;16.426;2022-12-07T13:41:29;54444.91;;;-146.77;100.00
55410;BME280;41279;43.546;16.426;2022-12-07T13:44:11;54699.31;;;-146.77;100.00
55410;BME280;41279;43.546;16.426;2022-12-07T13:49:38;54330.72;;;-146.77;100.00
55410;BME280;41279;43.546;16.426;2022-12-07T13:52:27;54082.38;;;-146.77;100.00
55410;BME280;41279;43.546;16.426;2022-12-07T13:57:33;54222.56;;;-146.77;100.00
55410;BME280;41279;43.546;16.426;2022-12-07T14:00:03;54164.47;;;-146.77;100.00
55410;BME280;41279;43.546;16.426;2022-12-07T14:02:34;54124.44;;;-146.77;100.00
55410;BME280;41279;43.546;16.426;2022-12-07T14:05:14;54008.25;;;-146.77;100.00
55410;BME280;41279;43.546;16.426;2022-12-07T14:08:21;53996.25;;;-146.77;100.00
55410;BME280;41279;43.546;16.426;2022-12-07T14:13:36;54082.38;;;-146.77;100.00
55410;BME280;41279;43.546;16.426;2022-12-07T14:18:58;54068.34;;;-146.77;100.00
55410;BME280;41279;43.546;16.426;2022-12-07T14:21:27;53848.03;;;-146.77;97.07
55410;BME280;41279;43.546;16.426;2022-12-07T14:24:14;53928.16;;;-146.77;96.80
55410;BME280;41279;43.546;16.426;2022-12-07T14:26:40;53978.22;;;-146.77;95.53
55410;BME280;41279;43.546;16.426;2022-12-07T14:31:51;53826.00;;;-146.77;91.79
55410;BME280;41279;43.546;16.426;2022-12-07T14:34:20;53717.84;;;-146.77;93.82
55410;BME280;41279;43.546;16.426;2022-12-07T14:36:53;53779.94;;;-146.77;94.46
55410;BME280;41279;43.546;16.426;2022-12-07T14:39:19;53739.88;;;-146.77;100.00
55410;BME280;41279;43.546;16.426;2022-12-07T14:41:51;53838.03;;;-146.77;100.00